Time;durP1;ratioP1;P1;durP2;ratioP2;P2;SDS_P1;SDS_P2;PMS_P1;PMS_P2;Temp;Humidity;BMP_temperature;BMP_pressure;BME280_temperature;BME280_humidity;BME280_pressure;Samples;Min_cycle;Max_cycle;Signal;HPM_P1;HPM_P2
2022/01/29 00:00:40;;;;;;;83.65;44.92;;;7.80;91.40;;;;;;6114825;23;20020;-79
2022/01/29 00:03:05;;;;;;;77.93;45.90;;;7.80;91.50;;;;;;6115028;23;20023;-78
2022/01/29 00:05:31;;;;;;;75.65;44.38;;;7.80;91.50;;;;;;6114407;23;20048;-77
2022/01/29 00:07:57;;;;;;;78.30;46.15;;;7.80;91.50;;;;;;6115425;23;20025;-78
2022/01/29 00:10:22;;;;;;;78.00;44.70;;;7.80;91.50;;;;;;6115499;23;20097;-81
2022/01/29 00:12:48;;;;;;;77.93;44.22;;;7.80;91.50;;;;;;6115920;23;20093;-78
2022/01/29 00:15:14;;;;;;;75.80;44.35;;;7.80;91.60;;;;;;6116088;23;20308;-78
2022/01/29 00:17:40;;;;;;;75.35;43.95;;;7.80;91.60;;;;;;6137639;23;20017;-78
2022/01/29 00:20:06;;;;;;;81.20;44.38;;;7.80;91.70;;;;;;6144879;23;20028;-79
2022/01/29 00:22:32;;;;;;;78.15;44.33;;;7.80;91.70;;;;;;6144809;23;20017;-76
2022/01/29 00:24:58;;;;;;;72.97;44.33;;;7.80;91.70;;;;;;6143082;23;20072;-77
2022/01/29 00:27:26;;;;;;;72.55;43.13;;;7.80;91.80;;;;;;6140396;23;20032;-76
2022/01/29 00:29:52;;;;;;;73.18;43.03;;;7.80;91.90;;;;;;6139529;23;20040;-76
2022/01/29 00:32:18;;;;;;;79.65;44.38;;;7.80;91.90;;;;;;6137970;23;20547;-76
2022/01/29 00:34:44;;;;;;;72.78;42.67;;;7.80;91.90;;;;;;6115707;23;20025;-76
2022/01/29 00:37:09;;;;;;;77.03;44.35;;;7.80;92.00;;;;;;6114123;23;20017;-80
2022/01/29 00:39:35;;;;;;;75.50;43.08;;;7.80;91.90;;;;;;6114213;23;20029;-76
2022/01/29 00:42:01;;;;;;;75.05;43.58;;;7.80;92.10;;;;;;6138605;23;20068;-77
2022/01/29 00:44:27;;;;;;;78.68;42.65;;;7.80;92.10;;;;;;6138389;23;20016;-78
2022/01/29 00:46:52;;;;;;;73.95;41.40;;;7.80;92.10;;;;;;6138799;23;20017;-78
2022/01/29 00:49:18;;;;;;;74.78;42.13;;;7.80;92.20;;;;;;6138659;23;20017;-76
2022/01/29 00:51:44;;;;;;;74.85;44.45;;;7.80;92.30;;;;;;6114655;23;20028;-76
2022/01/29 00:54:09;;;;;;;80.85;44.03;;;7.80;92.30;;;;;;6114231;23;20025;-76
2022/01/29 00:56:35;;;;;;;81.60;44.38;;;7.80;92.40;;;;;;6162783;23;20099;-76
2022/01/29 00:59:01;;;;;;;81.65;45.17;;;7.80;92.50;;;;;;6137874;23;20099;-79
2022/01/29 01:01:31;;;;;;;72.85;42.33;;;7.70;92.60;;;;;;6138140;23;20017;-75
2022/01/29 01:03:56;;;;;;;74.35;43.20;;;7.80;92.60;;;;;;6162394;23;20021;-77
2022/01/29 01:06:22;;;;;;;72.50;41.33;;;7.80;92.60;;;;;;6162100;23;20032;-76
2022/01/29 01:08:48;;;;;;;80.22;42.78;;;7.80;92.70;;;;;;6138667;23;20020;-76
2022/01/29 01:11:13;;;;;;;77.72;43.70;;;7.80;92.70;;;;;;6113458;23;20348;-79
2022/01/29 01:13:39;;;;;;;72.15;41.50;;;7.70;92.80;;;;;;6139047;23;20017;-75
2022/01/29 01:16:05;;;;;;;76.25;42.40;;;7.70;92.80;;;;;;6138835;23;20021;-75
2022/01/29 01:18:31;;;;;;;68.85;42.63;;;7.80;92.90;;;;;;6113978;23;20040;-76
2022/01/29 01:20:57;;;;;;;71.10;42.03;;;7.80;92.90;;;;;;6161356;23;20020;-76
2022/01/29 01:23:22;;;;;;;77.88;42.30;;;7.80;92.90;;;;;;6136494;23;20056;-76
2022/01/29 01:25:48;;;;;;;81.35;42.70;;;7.80;93.00;;;;;;6138695;23;20024;-76
2022/01/29 01:28:14;;;;;;;82.47;44.05;;;7.70;93.00;;;;;;6139116;23;20024;-76
2022/01/29 01:30:40;;;;;;;74.78;41.00;;;7.70;93.10;;;;;;6090180;23;20024;-77
2022/01/29 01:33:06;;;;;;;81.22;44.72;;;7.70;93.10;;;;;;6163130;23;20013;-75
2022/01/29 01:35:37;;;;;;;78.75;43.60;;;7.70;93.10;;;;;;6138872;23;20017;-77
2022/01/29 01:40:48;;;;;;;76.40;41.17;;;7.70;93.30;;;;;;6141562;23;20021;-77
2022/01/29 01:43:14;;;;;;;83.97;44.83;;;7.70;93.30;;;;;;6115463;23;20078;-76
2022/01/29 01:45:40;;;;;;;79.43;43.17;;;7.70;93.30;;;;;;6137980;23;20017;-77
2022/01/29 01:48:06;;;;;;;73.93;41.42;;;7.80;93.40;;;;;;6138953;23;20060;-76
2022/01/29 01:50:33;;;;;;;79.07;43.50;;;7.70;93.40;;;;;;6139967;23;20396;-76
2022/01/29 01:52:59;;;;;;;78.30;42.58;;;7.70;93.50;;;;;;6140942;23;20028;-75
2022/01/29 01:55:24;;;;;;;75.70;42.10;;;7.70;93.50;;;;;;6140583;23;20017;-76
2022/01/29 01:57:50;;;;;;;84.50;42.75;;;7.70;93.50;;;;;;6116048;23;20020;-76
2022/01/29 02:00:16;;;;;;;81.70;43.40;;;7.70;93.60;;;;;;6140922;23;20029;-76
2022/01/29 02:02:41;;;;;;;82.30;42.72;;;7.70;93.60;;;;;;6115944;23;20404;-76
2022/01/29 02:05:08;;;;;;;83.78;43.15;;;7.80;93.60;;;;;;6139894;23;20055;-76
2022/01/29 02:07:34;;;;;;;78.70;41.85;;;7.70;93.70;;;;;;6140500;23;20021;-76
2022/01/29 02:10:00;;;;;;;77.45;41.78;;;7.70;93.70;;;;;;6165412;23;20017;-75
2022/01/29 02:12:29;;;;;;;75.28;41.13;;;7.70;93.70;;;;;;6115700;23;20029;-78
2022/01/29 02:14:59;;;;;;;77.47;42.20;;;7.80;93.80;;;;;;6116657;23;20017;-76
2022/01/29 02:17:25;;;;;;;84.53;42.58;;;7.70;93.80;;;;;;6140982;23;20375;-79
2022/01/29 02:19:51;;;;;;;80.50;41.92;;;7.70;93.80;;;;;;6115305;23;20057;-76
2022/01/29 02:22:19;;;;;;;78.50;43.08;;;7.70;93.90;;;;;;6115359;23;20040;-77
2022/01/29 02:24:45;;;;;;;72.28;40.33;;;7.70;93.90;;;;;;6115639;23;20548;-77
2022/01/29 02:27:11;;;;;;;72.65;43.13;;;7.70;93.90;;;;;;6115739;23;20023;-76
2022/01/29 02:29:36;;;;;;;85.32;43.63;;;7.70;94.00;;;;;;6139979;23;20148;-76
2022/01/29 02:32:02;;;;;;;82.65;42.80;;;7.70;94.00;;;;;;6115557;23;20012;-76
2022/01/29 02:34:29;;;;;;;81.40;42.80;;;7.70;94.00;;;;;;6164813;23;20016;-77
2022/01/29 02:36:56;;;;;;;76.25;41.92;;;7.80;94.10;;;;;;6139855;23;20115;-77
2022/01/29 02:39:22;;;;;;;76.40;41.53;;;7.70;94.10;;;;;;6140091;23;20017;-77
2022/01/29 02:41:47;;;;;;;77.45;40.63;;;7.70;94.10;;;;;;6164390;23;20020;-75
2022/01/29 02:44:17;;;;;;;86.20;45.22;;;7.70;94.10;;;;;;6116326;23;20021;-75
2022/01/29 02:46:50;;;;;;;81.38;43.20;;;7.70;94.10;;;;;;6140676;23;20066;-76
2022/01/29 02:49:24;;;;;;;78.18;41.95;;;7.70;94.10;;;;;;6141446;23;20021;-76
2022/01/29 02:51:58;;;;;;;85.50;43.45;;;7.80;94.20;;;;;;6139710;23;20020;-76
2022/01/29 02:54:25;;;;;;;86.38;43.05;;;7.80;94.20;;;;;;6140008;23;20013;-76
2022/01/29 02:56:51;;;;;;;80.80;41.67;;;7.70;94.20;;;;;;6115233;23;20009;-76
2022/01/29 02:59:19;;;;;;;78.18;38.38;;;7.80;94.30;;;;;;6115427;23;20023;-75
2022/01/29 03:01:44;;;;;;;83.32;43.30;;;7.80;94.30;;;;;;6115133;23;20325;-77
2022/01/29 03:04:10;;;;;;;82.75;42.00;;;7.80;94.30;;;;;;6114108;23;20021;-76
2022/01/29 03:06:36;;;;;;;85.30;43.03;;;7.70;94.20;;;;;;6161232;23;20025;-77
2022/01/29 03:09:02;;;;;;;84.05;43.63;;;7.80;94.30;;;;;;6138325;23;20017;-76
2022/01/29 03:11:28;;;;;;;91.82;44.90;;;7.80;94.40;;;;;;6115003;23;20021;-76
2022/01/29 03:13:54;;;;;;;87.13;41.83;;;7.80;94.40;;;;;;6139070;23;20076;-76
2022/01/29 03:16:19;;;;;;;83.93;41.60;;;7.80;94.40;;;;;;6139193;23;20023;-76
2022/01/29 03:18:45;;;;;;;80.95;41.45;;;7.80;94.40;;;;;;6138978;23;20025;-76
2022/01/29 03:21:14;;;;;;;84.80;43.60;;;7.80;94.40;;;;;;6114816;23;20146;-75
2022/01/29 03:23:39;;;;;;;82.10;44.00;;;7.80;94.40;;;;;;6139424;23;20040;-76
2022/01/29 03:26:05;;;;;;;79.22;40.30;;;7.80;94.40;;;;;;6139062;23;20518;-75
2022/01/29 03:28:31;;;;;;;79.35;41.17;;;7.80;94.50;;;;;;6163660;23;20021;-76
2022/01/29 03:30:57;;;;;;;73.80;40.85;;;7.80;94.50;;;;;;6113458;23;20059;-76
2022/01/29 03:33:23;;;;;;;87.30;41.47;;;7.80;94.50;;;;;;6114329;23;20079;-76
2022/01/29 03:35:49;;;;;;;80.00;40.95;;;7.80;94.50;;;;;;6114264;23;20021;-75
2022/01/29 03:38:15;;;;;;;78.47;40.33;;;7.80;94.50;;;;;;6163284;23;20073;-75
2022/01/29 03:40:41;;;;;;;75.85;39.30;;;7.80;94.60;;;;;;6138451;23;20016;-76
2022/01/29 03:43:11;;;;;;;76.03;38.15;;;7.90;94.70;;;;;;6138141;23;20024;-76
2022/01/29 03:45:36;;;;;;;70.38;37.25;;;7.80;94.60;;;;;;6139385;23;20340;-81
2022/01/29 03:48:06;;;;;;;70.20;36.03;;;7.80;94.60;;;;;;6138223;23;20017;-75
2022/01/29 03:50:32;;;;;;;72.90;37.63;;;7.80;94.60;;;;;;6114919;23;20028;-76
2022/01/29 03:52:57;;;;;;;70.18;37.30;;;7.90;94.70;;;;;;6113780;23;20189;-76
2022/01/29 03:55:23;;;;;;;67.03;37.30;;;7.90;94.80;;;;;;6138822;23;20027;-76
2022/01/29 03:57:49;;;;;;;70.75;35.67;;;7.90;94.80;;;;;;6114405;23;20448;-76
2022/01/29 04:00:15;;;;;;;70.90;35.97;;;7.90;94.80;;;;;;6139518;23;20033;-76
2022/01/29 04:02:42;;;;;;;74.53;35.72;;;7.90;95.00;;;;;;6139389;23;20397;-77
2022/01/29 04:05:08;;;;;;;70.30;34.75;;;7.90;95.40;;;;;;6138303;23;20021;-76
2022/01/29 04:07:34;;;;;;;60.28;33.65;;;7.90;95.10;;;;;;6163784;23;20025;-77
2022/01/29 04:09:59;;;;;;;62.95;32.70;;;8.00;95.20;;;;;;6138686;23;20164;-75
2022/01/29 04:12:30;;;;;;;63.20;33.47;;;8.00;95.10;;;;;;6163155;23;20021;-76
2022/01/29 04:14:57;;;;;;;68.22;32.42;;;8.00;95.20;;;;;;6138726;23;20056;-75
2022/01/29 04:17:23;;;;;;;67.95;33.17;;;8.00;95.20;;;;;;6139410;23;20017;-75
2022/01/29 04:19:49;;;;;;;62.72;32.10;;;8.00;95.30;;;;;;6163416;23;20013;-76
2022/01/29 04:22:15;;;;;;;68.43;34.45;;;8.10;95.40;;;;;;6113898;23;20017;-76
2022/01/29 04:24:40;;;;;;;65.18;33.67;;;8.10;95.40;;;;;;6138692;23;20021;-76
2022/01/29 04:27:15;;;;;;;60.33;32.08;;;8.10;95.40;;;;;;6113637;23;20024;-75
2022/01/29 04:29:53;;;;;;;68.32;30.45;;;8.10;95.40;;;;;;6116930;23;20021;-76
2022/01/29 04:32:24;;;;;;;59.83;32.58;;;8.20;95.40;;;;;;6116952;23;20452;-75
2022/01/29 04:34:49;;;;;;;63.92;32.47;;;8.20;95.40;;;;;;6140079;23;20071;-76
2022/01/29 04:37:15;;;;;;;67.43;33.47;;;8.20;95.50;;;;;;6114469;23;20103;-76
2022/01/29 04:39:41;;;;;;;61.80;32.90;;;8.20;95.50;;;;;;6139403;23;20075;-76
2022/01/29 04:42:06;;;;;;;62.05;31.77;;;8.20;95.50;;;;;;6138145;23;20052;-75
2022/01/29 04:44:32;;;;;;;69.25;32.20;;;8.20;95.50;;;;;;6163879;23;20017;-76
2022/01/29 04:46:58;;;;;;;63.70;30.90;;;8.30;95.50;;;;;;6137583;23;20369;-76
2022/01/29 04:49:23;;;;;;;59.00;32.08;;;8.30;95.50;;;;;;6138340;23;20017;-76
2022/01/29 04:51:49;;;;;;;59.85;30.92;;;8.30;95.50;;;;;;6113894;23;20031;-77
2022/01/29 04:54:15;;;;;;;57.75;30.40;;;8.30;95.50;;;;;;6138591;23;20017;-76
2022/01/29 04:56:40;;;;;;;63.17;31.23;;;8.30;95.60;;;;;;6113619;23;20044;-76
2022/01/29 04:59:06;;;;;;;57.53;29.95;;;8.40;95.60;;;;;;6138426;23;20587;-75
2022/01/29 05:01:32;;;;;;;56.40;29.85;;;8.40;95.80;;;;;;6163380;23;20044;-75
2022/01/29 05:03:57;;;;;;;59.88;29.20;;;8.40;95.50;;;;;;6138069;23;20360;-75
2022/01/29 05:06:23;;;;;;;63.28;31.00;;;8.40;95.60;;;;;;6163182;23;20021;-76
2022/01/29 05:08:52;;;;;;;59.33;28.25;;;8.40;95.50;;;;;;6138697;23;20024;-79
2022/01/29 05:11:18;;;;;;;58.63;27.25;;;8.40;95.50;;;;;;6139276;23;20013;-76
2022/01/29 05:13:44;;;;;;;48.58;29.08;;;8.50;95.50;;;;;;6115363;23;20425;-77
2022/01/29 05:26:57;;;;;;;52.95;26.92;;;8.50;95.50;;;;;;6144164;23;20143;-74
2022/01/29 05:29:23;;;;;;;55.15;29.13;;;8.50;95.50;;;;;;6117120;23;20452;-76
2022/01/29 05:31:51;;;;;;;51.20;28.63;;;8.50;95.50;;;;;;6139950;23;20056;-76
2022/01/29 05:34:20;;;;;;;53.30;29.00;;;8.50;95.50;;;;;;6140712;23;20026;-76
2022/01/29 05:36:46;;;;;;;52.00;28.13;;;8.50;95.40;;;;;;6140684;23;20013;-75
2022/01/29 05:39:12;;;;;;;41.42;25.67;;;8.60;95.50;;;;;;6139722;23;20160;-76
2022/01/29 05:41:37;;;;;;;50.97;26.23;;;8.60;95.50;;;;;;6139915;23;20508;-76
2022/01/29 05:44:03;;;;;;;44.33;26.50;;;8.60;95.40;;;;;;6114654;23;20099;-76
2022/01/29 05:46:29;;;;;;;50.55;28.58;;;8.60;95.40;;;;;;6116090;23;20021;-76
2022/01/29 05:48:54;;;;;;;53.70;28.08;;;8.60;95.40;;;;;;6115253;23;20027;-79
2022/01/29 05:51:20;;;;;;;51.63;28.48;;;8.60;95.40;;;;;;6115864;23;20079;-76
2022/01/29 05:53:46;;;;;;;47.40;27.08;;;8.60;95.50;;;;;;6140162;23;20375;-76
2022/01/29 05:56:12;;;;;;;50.97;27.80;;;8.60;95.50;;;;;;6115044;23;20028;-76
2022/01/29 05:58:37;;;;;;;49.85;27.67;;;8.70;95.50;;;;;;6140460;23;20013;-76
2022/01/29 06:01:03;;;;;;;55.83;28.58;;;8.70;95.50;;;;;;6138931;23;20044;-75
2022/01/29 06:03:29;;;;;;;51.80;28.55;;;8.70;95.50;;;;;;6139730;23;20021;-76
2022/01/29 06:05:55;;;;;;;53.10;28.20;;;8.70;95.40;;;;;;6144451;23;20031;-75
2022/01/29 06:08:20;;;;;;;44.20;27.13;;;8.70;95.40;;;;;;6145998;23;20426;-75
2022/01/29 06:10:46;;;;;;;46.28;28.10;;;8.70;95.40;;;;;;6142158;23;20073;-76
2022/01/29 06:13:13;;;;;;;45.92;26.77;;;8.70;95.40;;;;;;6116221;23;20025;-76
2022/01/29 06:15:49;;;;;;;45.63;25.58;;;8.80;95.50;;;;;;6115097;23;20024;-76
2022/01/29 06:18:18;;;;;;;53.90;26.27;;;8.70;95.80;;;;;;6141466;23;20435;-76
2022/01/29 06:20:55;;;;;;;44.08;25.98;;;8.80;95.40;;;;;;6117369;23;20095;-76
2022/01/29 06:23:28;;;;;;;49.40;26.30;;;8.80;95.50;;;;;;6145525;23;20013;-76
2022/01/29 06:25:53;;;;;;;40.92;25.55;;;8.80;95.40;;;;;;6122403;23;20095;-75
2022/01/29 06:28:19;;;;;;;45.30;25.30;;;8.90;95.40;;;;;;6140539;23;20021;-76
2022/01/29 06:30:45;;;;;;;40.17;25.30;;;8.80;95.40;;;;;;6138955;23;20019;-77
2022/01/29 06:33:12;;;;;;;47.53;23.92;;;8.80;95.40;;;;;;6138863;23;20088;-77
2022/01/29 06:35:39;;;;;;;41.63;24.42;;;8.90;95.40;;;;;;6163355;23;20056;-76
2022/01/29 06:38:05;;;;;;;42.95;23.48;;;8.90;95.40;;;;;;6138566;23;20009;-76
2022/01/29 06:40:31;;;;;;;39.72;22.38;;;8.90;95.30;;;;;;6139368;23;20017;-76
2022/01/29 06:42:57;;;;;;;37.58;22.73;;;8.90;95.30;;;;;;6115104;23;20023;-76
2022/01/29 06:45:23;;;;;;;35.47;23.20;;;9.00;95.40;;;;;;6139729;23;20013;-76
2022/01/29 06:47:48;;;;;;;38.97;22.27;;;8.90;95.30;;;;;;6165235;23;20017;-75
2022/01/29 06:50:14;;;;;;;35.13;20.45;;;8.90;95.30;;;;;;6140258;23;20032;-76
2022/01/29 06:52:40;;;;;;;39.15;21.92;;;8.90;95.30;;;;;;6119148;23;20045;-76
2022/01/29 06:55:06;;;;;;;42.70;22.00;;;8.90;95.30;;;;;;6169490;23;20024;-77
2022/01/29 06:57:34;;;;;;;42.47;21.02;;;8.90;95.40;;;;;;6146673;23;20088;-76
2022/01/29 06:59:59;;;;;;;29.98;18.90;;;9.00;95.40;;;;;;6170199;23;20031;-75
2022/01/29 07:02:25;;;;;;;36.40;19.45;;;9.00;95.30;;;;;;6139542;23;20348;-76
2022/01/29 07:04:51;;;;;;;35.55;18.48;;;9.00;95.30;;;;;;6114420;23;20021;-76
2022/01/29 07:07:19;;;;;;;27.50;18.52;;;8.90;95.30;;;;;;6139300;23;20122;-75
2022/01/29 07:09:45;;;;;;;38.00;20.00;;;9.00;95.30;;;;;;6140282;23;20022;-76
2022/01/29 07:12:11;;;;;;;34.47;20.10;;;9.00;95.30;;;;;;6164744;23;20024;-77
2022/01/29 07:14:39;;;;;;;34.92;19.45;;;9.00;95.30;;;;;;6139697;23;20339;-75
2022/01/29 07:17:12;;;;;;;30.33;18.77;;;9.00;95.30;;;;;;6139917;23;20017;-76
2022/01/29 07:19:38;;;;;;;30.20;18.83;;;9.00;95.30;;;;;;6139994;23;20055;-77
2022/01/29 07:22:04;;;;;;;32.75;18.95;;;9.00;95.30;;;;;;6115922;23;20432;-76
2022/01/29 07:24:30;;;;;;;33.35;19.55;;;9.00;95.30;;;;;;6163565;23;20455;-76
2022/01/29 07:26:56;;;;;;;36.35;20.00;;;9.00;95.30;;;;;;6139025;23;20029;-77
2022/01/29 07:29:22;;;;;;;30.50;18.85;;;9.00;95.40;;;;;;6140595;23;20040;-76
2022/01/29 07:31:48;;;;;;;31.70;19.27;;;9.10;95.40;;;;;;6164745;23;20501;-75
2022/01/29 07:34:13;;;;;;;31.73;18.48;;;9.00;95.40;;;;;;6190863;23;20065;-76
2022/01/29 07:36:39;;;;;;;37.78;19.92;;;9.00;95.40;;;;;;6140187;23;20017;-76
2022/01/29 07:39:05;;;;;;;29.35;18.77;;;9.10;95.40;;;;;;6162861;23;20024;-77
2022/01/29 07:41:30;;;;;;;35.25;19.67;;;9.10;95.40;;;;;;6113234;23;20025;-78
2022/01/29 07:43:56;;;;;;;34.53;20.55;;;9.10;95.50;;;;;;6138510;23;20063;-76
2022/01/29 07:46:22;;;;;;;31.75;18.42;;;9.10;95.50;;;;;;6163582;23;20447;-75
2022/01/29 07:48:47;;;;;;;34.80;19.05;;;9.10;95.50;;;;;;6140216;23;20017;-75
2022/01/29 07:51:13;;;;;;;33.67;20.02;;;9.10;95.50;;;;;;6139854;23;20025;-76
2022/01/29 07:53:39;;;;;;;37.95;19.13;;;9.10;95.60;;;;;;6163956;23;20447;-75
2022/01/29 07:56:04;;;;;;;32.15;19.85;;;9.10;95.60;;;;;;6139763;23;20439;-76
2022/01/29 07:58:30;;;;;;;34.38;20.35;;;9.10;95.60;;;;;;6164626;23;20097;-76
2022/01/29 08:00:56;;;;;;;34.15;18.83;;;9.10;95.60;;;;;;6189729;23;20108;-75
2022/01/29 08:03:21;;;;;;;36.67;19.27;;;9.10;95.60;;;;;;6139587;23;20075;-76
2022/01/29 08:05:47;;;;;;;31.33;19.67;;;9.10;95.60;;;;;;6139362;23;20097;-76
2022/01/29 08:08:13;;;;;;;34.00;18.25;;;9.10;95.60;;;;;;6139505;23;20043;-75
2022/01/29 08:10:39;;;;;;;30.58;18.58;;;9.10;95.60;;;;;;6189707;23;20074;-75
2022/01/29 08:13:04;;;;;;;32.25;19.05;;;9.10;95.70;;;;;;6139594;23;20024;-76
2022/01/29 08:15:30;;;;;;;35.80;19.73;;;9.10;95.60;;;;;;6139479;23;20020;-76
2022/01/29 08:17:56;;;;;;;33.05;18.30;;;9.10;95.70;;;;;;6139209;23;20013;-78
2022/01/29 08:20:21;;;;;;;30.60;18.15;;;9.10;95.70;;;;;;6138862;23;20028;-76
2022/01/29 08:22:47;;;;;;;32.83;18.02;;;9.20;96.00;;;;;;6139914;23;20024;-77
2022/01/29 08:25:14;;;;;;;23.48;16.45;;;9.20;95.70;;;;;;6115521;23;20044;-77
2022/01/29 08:27:39;;;;;;;26.92;16.85;;;9.20;95.60;;;;;;6139941;23;20016;-76
2022/01/29 08:30:07;;;;;;;29.70;16.88;;;9.20;95.60;;;;;;6139773;23;20028;-76
2022/01/29 08:32:40;;;;;;;27.33;16.05;;;9.20;95.60;;;;;;6163960;23;20017;-76
2022/01/29 08:35:09;;;;;;;29.25;16.38;;;9.20;95.60;;;;;;6117497;23;20017;-77
2022/01/29 08:37:38;;;;;;;25.05;16.00;;;9.20;95.60;;;;;;6163584;23;20399;-77
2022/01/29 08:40:05;;;;;;;27.80;15.45;;;9.30;95.50;;;;;;6140746;23;20025;-75
2022/01/29 08:42:31;;;;;;;24.05;14.20;;;9.30;95.50;;;;;;6164619;23;20024;-76
2022/01/29 08:44:57;;;;;;;30.52;14.77;;;9.30;95.50;;;;;;6164675;23;20013;-76
2022/01/29 08:47:22;;;;;;;25.63;14.23;;;9.30;95.50;;;;;;6139691;23;20432;-77
2022/01/29 08:49:48;;;;;;;24.88;14.50;;;9.30;95.40;;;;;;6139720;23;20028;-76
2022/01/29 08:52:14;;;;;;;24.17;14.02;;;9.30;95.40;;;;;;6164763;23;20016;-76
2022/01/29 08:54:41;;;;;;;26.58;13.52;;;9.40;95.50;;;;;;6115195;23;20241;-77
2022/01/29 08:57:06;;;;;;;27.45;15.15;;;9.40;95.50;;;;;;6140400;23;20044;-76
2022/01/29 08:59:32;;;;;;;29.67;14.55;;;9.40;95.40;;;;;;6139417;23;20013;-75
2022/01/29 09:01:58;;;;;;;25.38;13.82;;;9.40;95.40;;;;;;6138424;23;20029;-76
2022/01/29 09:04:23;;;;;;;24.88;13.50;;;9.40;95.40;;;;;;6137399;23;20031;-80
2022/01/29 09:06:50;;;;;;;23.55;12.85;;;9.40;95.40;;;;;;6164965;23;20025;-77
2022/01/29 09:09:20;;;;;;;23.08;11.75;;;9.40;95.40;;;;;;6139717;23;20024;-76
2022/01/29 09:11:46;;;;;;;18.55;12.45;;;9.50;95.40;;;;;;6114311;23;20025;-75
2022/01/29 09:14:12;;;;;;;21.20;13.38;;;9.50;95.40;;;;;;6115220;23;20021;-77
2022/01/29 09:16:38;;;;;;;28.23;13.80;;;9.60;95.30;;;;;;6138620;23;20068;-76
2022/01/29 09:19:04;;;;;;;27.40;12.98;;;9.60;95.30;;;;;;6163444;23;20309;-80
2022/01/29 09:21:29;;;;;;;23.58;14.55;;;9.60;95.20;;;;;;6141396;23;20021;-81
2022/01/29 09:23:56;;;;;;;20.35;13.40;;;9.60;95.20;;;;;;6141554;23;20081;-79
2022/01/29 09:26:23;;;;;;;25.00;14.45;;;9.60;95.20;;;;;;6164742;23;20095;-74
2022/01/29 09:28:48;;;;;;;22.83;14.07;;;9.60;95.20;;;;;;6162041;23;20317;-74
2022/01/29 09:31:14;;;;;;;27.08;14.32;;;9.60;95.20;;;;;;6135664;23;20024;-74
2022/01/29 09:33:40;;;;;;;27.00;13.60;;;9.60;95.20;;;;;;6159554;23;20021;-74
2022/01/29 09:36:06;;;;;;;22.73;14.10;;;9.60;95.20;;;;;;6136589;23;20361;-76
2022/01/29 09:38:31;;;;;;;25.17;13.48;;;9.70;95.20;;;;;;6162057;23;20076;-78
2022/01/29 09:40:57;;;;;;;23.92;13.02;;;9.70;95.20;;;;;;6113134;23;20400;-76
2022/01/29 09:43:26;;;;;;;22.45;13.48;;;9.70;95.20;;;;;;6114064;23;20021;-76
2022/01/29 09:45:51;;;;;;;23.63;13.98;;;9.70;95.20;;;;;;6114498;23;20028;-77
2022/01/29 09:48:24;;;;;;;21.70;13.02;;;9.70;95.20;;;;;;6162962;23;20013;-78
2022/01/29 09:50:51;;;;;;;21.02;13.05;;;9.70;95.20;;;;;;6163079;23;20012;-76
2022/01/29 09:53:16;;;;;;;22.83;13.13;;;9.70;95.20;;;;;;6139453;23;20032;-76
2022/01/29 09:55:43;;;;;;;21.75;12.68;;;9.80;95.20;;;;;;6139728;23;20048;-76
2022/01/29 09:58:09;;;;;;;20.80;12.77;;;9.80;95.10;;;;;;6163840;23;20391;-76
2022/01/29 10:00:35;;;;;;;18.95;11.88;;;9.80;95.10;;;;;;6115055;23;20344;-78
2022/01/29 10:03:10;;;;;;;20.50;11.45;;;9.90;95.10;;;;;;6138845;23;20044;-76
2022/01/29 10:05:40;;;;;;;23.00;11.65;;;9.80;95.10;;;;;;6190176;23;20032;-77
2022/01/29 10:08:06;;;;;;;21.42;11.45;;;9.90;95.10;;;;;;6165046;23;20017;-87
2022/01/29 10:10:38;;;;;;;17.30;11.48;;;9.90;95.10;;;;;;6164732;23;20112;-81
2022/01/29 10:13:38;;;;;;;19.17;10.45;;;9.90;95.10;;;;;;6164602;23;20028;-78
2022/01/29 10:16:20;;;;;;;19.15;10.77;;;10.00;95.10;;;;;;6165780;23;20460;-73
2022/01/29 10:18:48;;;;;;;25.52;10.18;;;10.00;95.00;;;;;;6185838;23;20024;-73
2022/01/29 10:21:21;;;;;;;16.77;9.88;;;10.00;94.90;;;;;;6160105;23;20017;-73
2022/01/29 10:23:47;;;;;;;21.60;11.02;;;10.00;94.90;;;;;;6186522;23;20017;-71
2022/01/29 10:26:26;;;;;;;20.92;11.07;;;10.00;94.90;;;;;;6186655;23;20020;-74
2022/01/29 10:28:53;;;;;;;16.20;9.70;;;10.00;94.90;;;;;;6160896;23;20096;-72
2022/01/29 10:31:18;;;;;;;16.92;10.65;;;10.00;94.90;;;;;;6111222;23;20020;-74
2022/01/29 10:33:44;;;;;;;19.10;9.77;;;10.00;94.80;;;;;;6159872;23;20017;-74
2022/01/29 10:36:22;;;;;;;18.02;9.48;;;10.00;94.80;;;;;;6160058;23;20017;-74
2022/01/29 10:38:52;;;;;;;17.40;9.20;;;10.10;94.80;;;;;;6135820;23;20013;-74
2022/01/29 10:41:22;;;;;;;15.38;8.35;;;10.10;94.80;;;;;;6160461;23;20040;-76
2022/01/29 10:44:11;;;;;;;14.38;9.32;;;10.10;94.70;;;;;;6134279;23;20052;-74
2022/01/29 10:46:46;;;;;;;14.73;8.38;;;10.20;94.70;;;;;;6186927;23;20012;-76
2022/01/29 10:49:26;;;;;;;14.00;7.90;;;10.20;94.60;;;;;;6159476;23;20071;-74
2022/01/29 10:51:56;;;;;;;16.83;8.48;;;10.20;94.60;;;;;;6137391;23;20013;-74
2022/01/29 10:54:22;;;;;;;15.38;8.48;;;10.30;94.50;;;;;;6134840;23;20378;-73
2022/01/29 10:56:51;;;;;;;12.20;7.47;;;10.30;94.40;;;;;;6135410;23;20009;-73
2022/01/29 10:59:17;;;;;;;14.93;7.72;;;10.30;94.30;;;;;;6159368;23;20494;-74
2022/01/29 11:02:09;;;;;;;12.38;7.28;;;10.40;94.30;;;;;;6159671;23;20017;-75
2022/01/29 11:04:36;;;;;;;15.13;6.47;;;10.50;94.20;;;;;;6159278;23;20347;-75
2022/01/29 11:07:06;;;;;;;10.68;5.43;;;10.60;94.10;;;;;;6185750;23;20036;-73
2022/01/29 11:09:34;;;;;;;10.27;5.22;;;10.70;93.90;;;;;;6134815;23;20031;-73
2022/01/29 11:12:04;;;;;;;14.82;5.53;;;10.70;93.70;;;;;;6158482;23;20015;-73
2022/01/29 11:14:30;;;;;;;14.20;5.45;;;10.70;93.50;;;;;;6185047;23;20439;-74
2022/01/29 11:16:55;;;;;;;12.38;5.13;;;10.70;93.50;;;;;;6158559;23;20020;-72
2022/01/29 11:19:21;;;;;;;8.65;5.28;;;10.80;93.40;;;;;;6109839;23;20009;-76
2022/01/29 11:21:49;;;;;;;15.20;5.20;;;10.80;93.30;;;;;;6158538;23;20052;-73
2022/01/29 11:24:17;;;;;;;10.07;4.97;;;10.80;93.30;;;;;;6159947;23;20309;-74
2022/01/29 11:26:45;;;;;;;12.13;4.35;;;10.90;93.20;;;;;;6158893;23;20012;-74
2022/01/29 11:29:33;;;;;;;8.38;4.13;;;10.90;93.10;;;;;;6184947;23;20505;-73
2022/01/29 11:32:20;;;;;;;15.32;5.43;;;10.90;92.90;;;;;;6185563;23;20063;-72
2022/01/29 11:35:04;;;;;;;11.77;5.47;;;10.90;92.80;;;;;;6158766;23;20021;-75
2022/01/29 11:37:44;;;;;;;8.43;4.70;;;10.90;92.60;;;;;;6159527;23;20012;-73
2022/01/29 11:40:27;;;;;;;10.02;4.93;;;11.00;92.80;;;;;;6132944;23;20021;-71
2022/01/29 11:42:54;;;;;;;13.52;4.35;;;11.20;92.60;;;;;;6158278;23;20075;-77
2022/01/29 11:45:49;;;;;;;13.18;4.63;;;11.40;92.40;;;;;;6158558;23;20020;-78
2022/01/29 11:48:25;;;;;;;10.43;3.88;;;11.50;92.10;;;;;;6157724;23;20021;-74
2022/01/29 11:50:51;;;;;;;11.63;3.70;;;11.60;91.90;;;;;;6184146;23;20013;-76
2022/01/29 11:53:18;;;;;;;12.38;3.78;;;11.50;91.80;;;;;;6111177;23;20017;-77
2022/01/29 11:55:45;;;;;;;12.27;3.65;;;11.40;91.70;;;;;;6158778;23;20436;-74
2022/01/29 11:58:26;;;;;;;10.13;3.67;;;11.40;91.70;;;;;;6134027;23;20104;-77
2022/01/29 12:00:58;;;;;;;11.98;3.60;;;11.60;91.90;;;;;;6161009;23;20440;-77
2022/01/29 12:03:44;;;;;;;11.77;3.85;;;11.90;91.40;;;;;;6159560;23;20017;-75
2022/01/29 12:06:27;;;;;;;10.07;3.10;;;11.80;91.00;;;;;;6159389;23;20068;-75
2022/01/29 12:11:28;;;;;;;12.25;3.83;;;11.80;90.90;;;;;;6159815;23;20036;-75
2022/01/29 12:14:12;;;;;;;12.93;4.50;;;11.70;91.00;;;;;;6158512;23;20024;-76
2022/01/29 12:16:54;;;;;;;10.45;3.97;;;11.70;90.90;;;;;;6158531;23;20016;-73
2022/01/29 12:19:49;;;;;;;11.95;4.32;;;11.70;91.20;;;;;;6134543;23;20108;-74
2022/01/29 12:22:20;;;;;;;8.18;3.97;;;11.60;90.70;;;;;;6117818;23;20048;-74
2022/01/29 12:24:56;;;;;;;8.82;3.67;;;11.60;91.00;;;;;;6159420;23;20028;-73
2022/01/29 12:27:23;;;;;;;11.18;3.55;;;11.50;90.90;;;;;;6159461;23;20020;-71
2022/01/29 12:29:48;;;;;;;8.40;3.83;;;11.50;91.00;;;;;;6134536;23;20020;-74
2022/01/29 12:32:14;;;;;;;12.93;4.13;;;11.50;90.90;;;;;;6159372;23;20068;-75
2022/01/29 12:34:40;;;;;;;11.18;3.85;;;11.50;91.00;;;;;;6158954;23;20164;-73
2022/01/29 12:37:21;;;;;;;9.30;4.22;;;11.60;91.00;;;;;;6157894;23;20013;-71
2022/01/29 12:39:48;;;;;;;10.80;4.40;;;11.70;90.80;;;;;;6161759;23;20020;-73
2022/01/29 12:44:52;;;;;;;11.93;4.13;;;11.90;90.50;;;;;;6185124;23;20017;-74
2022/01/29 12:47:31;;;;;;;12.07;4.15;;;11.90;90.30;;;;;;6134355;23;20032;-73
2022/01/29 12:49:57;;;;;;;12.32;4.28;;;11.80;90.10;;;;;;6134745;23;20309;-73
2022/01/29 12:52:23;;;;;;;13.18;4.90;;;11.80;90.30;;;;;;6185509;23;20053;-73
2022/01/29 12:54:53;;;;;;;11.95;5.18;;;11.70;90.40;;;;;;6133968;23;20045;-74
2022/01/29 12:57:19;;;;;;;12.38;4.25;;;11.70;90.40;;;;;;6185152;23;20009;-74